createdAt,value
2022-09-12T00:01:55.149Z,13.80
2022-09-12T00:04:22.118Z,13.70
2022-09-12T00:06:49.086Z,13.70
2022-09-12T00:09:16.426Z,13.70
2022-09-12T00:11:45.336Z,13.60
2022-09-12T00:14:15.485Z,13.60
2022-09-12T00:16:42.803Z,13.60
2022-09-12T00:19:10.559Z,13.50
2022-09-12T00:21:39.026Z,13.50
2022-09-12T00:24:06.604Z,13.50
2022-09-12T00:26:33.746Z,13.40
2022-09-12T00:29:00.711Z,13.30
2022-09-12T00:31:28.071Z,13.30
2022-09-12T00:33:57.149Z,13.20
2022-09-12T00:36:25.521Z,13.10
2022-09-12T00:38:53.468Z,13.00
2022-09-12T00:41:38.842Z,13.00
2022-09-12T00:44:24.099Z,12.90
2022-09-12T00:47:10.417Z,12.80
2022-09-12T00:49:49.687Z,12.70
2022-09-12T00:52:27.644Z,12.60
2022-09-12T00:54:57.787Z,12.60
2022-09-12T00:57:29.834Z,12.60
2022-09-12T01:00:04.524Z,12.60
2022-09-12T01:02:31.406Z,12.60
2022-09-12T01:04:58.400Z,12.60
2022-09-12T01:07:25.535Z,12.50
2022-09-12T01:09:52.496Z,12.60
2022-09-12T01:12:19.546Z,12.60
2022-09-12T01:14:46.382Z,12.50
2022-09-12T01:17:14.971Z,12.60
2022-09-12T01:20:19.099Z,12.60
2022-09-12T01:23:01.004Z,12.60
2022-09-12T01:25:55.121Z,12.60
2022-09-12T01:28:53.908Z,12.50
2022-09-12T01:31:49.042Z,12.50
2022-09-12T01:34:46.152Z,12.50
2022-09-12T01:37:46.923Z,12.40
2022-09-12T01:40:23.944Z,12.30
2022-09-12T01:43:18.307Z,12.30
2022-09-12T01:46:15.695Z,12.30
2022-09-12T01:48:46.628Z,12.20
2022-09-12T01:51:26.408Z,12.20
2022-09-12T01:54:03.950Z,12.20
2022-09-12T01:56:35.543Z,12.10
2022-09-12T01:59:08.805Z,12.20
2022-09-12T02:01:58.800Z,12.10
2022-09-12T02:04:34.119Z,12.10
2022-09-12T02:07:16.907Z,12.10
2022-09-12T02:09:46.608Z,12.00
2022-09-12T02:12:16.749Z,11.90
2022-09-12T02:14:49.463Z,11.80
2022-09-12T02:17:23.061Z,11.70
2022-09-12T02:19:56.792Z,11.70
2022-09-12T02:22:27.750Z,11.60
2022-09-12T02:24:59.246Z,11.70
2022-09-12T02:27:37.761Z,11.70
2022-09-12T02:30:06.507Z,11.70
2022-09-12T02:32:58.624Z,11.80
2022-09-12T02:35:36.774Z,11.80
2022-09-12T02:38:41.922Z,11.80
2022-09-12T02:41:09.199Z,11.80
2022-09-12T02:43:37.815Z,11.70
2022-09-12T02:46:10.574Z,11.70
2022-09-12T02:48:41.723Z,11.60
2022-09-12T02:51:09.229Z,11.60
2022-09-12T02:53:36.834Z,11.70
2022-09-12T02:56:08.638Z,11.70
2022-09-12T02:58:35.566Z,11.70
2022-09-12T03:01:23.554Z,11.60
2022-09-12T03:03:56.529Z,11.60
2022-09-12T03:06:51.597Z,11.60
2022-09-12T03:09:34.547Z,11.60
2022-09-12T03:12:19.480Z,11.70
2022-09-12T03:14:54.419Z,11.60
2022-09-12T03:18:06.379Z,11.60
2022-09-12T03:21:11.949Z,11.60
2022-09-12T03:23:52.319Z,11.70
2022-09-12T03:26:36.309Z,11.80
2022-09-12T03:29:04.970Z,11.70
2022-09-12T03:31:31.820Z,11.70
2022-09-12T03:34:00.275Z,11.60
2022-09-12T03:36:29.371Z,11.60
2022-09-12T03:38:56.448Z,11.60
2022-09-12T03:41:23.256Z,11.60
2022-09-12T03:43:50.024Z,11.70
2022-09-12T03:46:16.902Z,11.70
2022-09-12T03:48:43.681Z,11.70
2022-09-12T03:51:10.990Z,11.70
2022-09-12T03:53:37.868Z,11.60
2022-09-12T03:56:11.769Z,11.60
2022-09-12T03:58:39.423Z,11.60
2022-09-12T04:01:12.776Z,11.60
2022-09-12T04:03:44.113Z,11.50
2022-09-12T04:06:14.563Z,11.50
2022-09-12T04:08:47.872Z,11.40
2022-09-12T04:11:16.430Z,11.30
2022-09-12T04:13:45.244Z,11.40
2022-09-12T04:16:13.996Z,11.40
2022-09-12T04:18:40.851Z,11.30
2022-09-12T04:21:14.422Z,11.40
2022-09-12T04:23:41.273Z,11.40
2022-09-12T04:26:08.925Z,11.30
2022-09-12T04:28:37.468Z,11.30
2022-09-12T04:31:10.080Z,11.30
2022-09-12T04:33:37.087Z,11.30
2022-09-12T04:36:14.337Z,11.20
2022-09-12T04:38:41.317Z,11.20
2022-09-12T04:41:15.538Z,11.10
2022-09-12T04:43:43.212Z,11.10
2022-09-12T04:46:12.168Z,11.10
2022-09-12T04:48:39.073Z,11.00
2022-09-12T04:51:15.332Z,11.00
2022-09-12T04:53:42.997Z,11.00
2022-09-12T04:56:12.150Z,11.10
2022-09-12T04:58:39.225Z,11.10
2022-09-12T05:01:11.730Z,11.20
2022-09-12T05:03:39.804Z,11.20
2022-09-12T05:06:08.880Z,11.20
2022-09-12T05:08:35.936Z,11.30
2022-09-12T05:11:08.161Z,11.20
2022-09-12T05:13:35.364Z,11.30
2022-09-12T05:16:03.847Z,11.30
2022-09-12T05:18:35.317Z,11.30
2022-09-12T05:21:04.440Z,11.30
2022-09-12T05:23:31.650Z,11.40
2022-09-12T05:26:00.337Z,11.40
2022-09-12T05:28:35.588Z,11.50
2022-09-12T05:31:10.915Z,11.60
2022-09-12T05:33:39.240Z,11.60
2022-09-12T05:36:08.124Z,11.70
2022-09-12T05:38:35.619Z,11.80
2022-09-12T05:41:18.249Z,11.90
2022-09-12T05:43:47.608Z,12.20
2022-09-12T05:46:16.831Z,12.60
2022-09-12T05:48:45.643Z,12.70
2022-09-12T05:51:26.962Z,12.70
2022-09-12T05:53:56.834Z,12.90
2022-09-12T05:56:26.275Z,12.90
2022-09-12T05:58:56.057Z,13.00
2022-09-12T06:01:23.418Z,12.90
2022-09-12T06:03:52.545Z,12.90
2022-09-12T06:06:21.611Z,13.00
2022-09-12T06:08:51.047Z,13.00
2022-09-12T06:11:21.195Z,13.00
2022-09-12T06:13:48.286Z,13.00
2022-09-12T06:16:23.443Z,13.10
2022-09-12T06:19:01.993Z,13.10
2022-09-12T06:21:31.260Z,13.10
2022-09-12T06:23:58.904Z,13.20
2022-09-12T06:26:26.398Z,13.30
2022-09-12T06:28:55.621Z,13.30
2022-09-12T06:31:25.775Z,13.40
2022-09-12T06:33:54.112Z,13.50
2022-09-12T06:36:22.478Z,13.50
2022-09-12T06:38:54.793Z,13.60
2022-09-12T06:41:21.950Z,13.70
2022-09-12T06:43:48.751Z,13.80
2022-09-12T06:46:15.730Z,13.80
2022-09-12T06:48:42.897Z,13.90
2022-09-12T06:51:13.375Z,13.90
2022-09-12T06:53:40.534Z,14.00
2022-09-12T06:56:13.978Z,14.20
2022-09-12T06:58:42.146Z,14.20
2022-09-12T07:01:12.519Z,14.30
2022-09-12T07:03:39.839Z,14.40
2022-09-12T07:06:12.225Z,14.50
2022-09-12T07:08:40.892Z,14.60
2022-09-12T07:11:20.028Z,14.70
2022-09-12T07:13:49.550Z,14.70
2022-09-12T07:16:19.721Z,14.70
2022-09-12T07:18:55.141Z,14.80
2022-09-12T07:21:22.623Z,14.80
2022-09-12T07:23:49.733Z,15.00
2022-09-12T07:26:16.760Z,15.10
2022-09-12T07:28:44.295Z,15.20
2022-09-12T07:31:16.930Z,15.20
2022-09-12T07:33:44.333Z,15.20
2022-09-12T07:36:16.339Z,15.30
2022-09-12T07:38:44.127Z,15.40
2022-09-12T07:41:24.589Z,15.50
2022-09-12T07:43:56.156Z,15.60
2022-09-12T07:46:24.080Z,15.90
2022-09-12T07:48:52.266Z,16.10
2022-09-12T07:51:19.552Z,16.00
2022-09-12T07:53:47.031Z,16.10
2022-09-12T07:56:13.954Z,16.20
2022-09-12T07:58:41.950Z,16.20
2022-09-12T08:01:14.213Z,16.20
2022-09-12T08:03:42.375Z,16.20
2022-09-12T08:06:15.210Z,16.10
2022-09-12T08:08:42.931Z,16.10
2022-09-12T08:11:13.556Z,16.20
2022-09-12T08:13:42.333Z,16.40
2022-09-12T08:16:14.872Z,16.50
2022-09-12T08:18:42.121Z,16.60
2022-09-12T08:21:13.507Z,16.70
2022-09-12T08:23:40.842Z,16.90
2022-09-12T08:26:08.256Z,16.80
2022-09-12T08:28:36.313Z,16.80
2022-09-12T08:31:05.209Z,17.00
2022-09-12T08:33:33.557Z,17.00
2022-09-12T08:36:27.383Z,16.90
2022-09-12T08:38:59.655Z,17.00
2022-09-12T08:41:38.512Z,17.10
2022-09-12T08:44:26.435Z,17.40
2022-09-12T08:47:22.529Z,17.60
2022-09-12T08:50:08.186Z,17.80
2022-09-12T08:53:04.445Z,18.00
2022-09-12T08:55:42.764Z,18.10
2022-09-12T08:58:17.137Z,18.00
2022-09-12T09:00:49.881Z,17.70
2022-09-12T09:03:36.880Z,17.60
2022-09-12T09:06:09.183Z,17.60
2022-09-12T09:09:05.381Z,17.80
2022-09-12T09:11:37.573Z,18.50
2022-09-12T09:14:49.021Z,18.40
2022-09-12T09:17:25.370Z,18.10
2022-09-12T09:20:24.099Z,17.90
2022-09-12T09:23:13.204Z,18.50
2022-09-12T09:25:47.306Z,19.10
2022-09-12T09:28:20.753Z,19.40
2022-09-12T09:30:47.679Z,19.70
2022-09-12T09:33:26.836Z,19.90
2022-09-12T09:36:13.237Z,20.20
2022-09-12T09:39:00.731Z,20.30
2022-09-12T09:41:49.303Z,20.40
2022-09-12T09:44:17.175Z,20.30
2022-09-12T09:46:44.161Z,19.80
2022-09-12T09:49:14.672Z,19.50
2022-09-12T09:51:42.798Z,19.30
2022-09-12T09:54:25.534Z,19.30
2022-09-12T09:56:52.393Z,19.80
2022-09-12T09:59:29.568Z,19.60
2022-09-12T10:02:03.339Z,19.10
2022-09-12T10:04:41.033Z,18.80
2022-09-12T10:07:19.470Z,18.60
2022-09-12T10:10:07.812Z,18.60
2022-09-12T10:12:34.593Z,18.50
2022-09-12T10:15:16.152Z,19.30
2022-09-12T10:17:46.398Z,19.80
2022-09-12T10:20:37.256Z,20.20
2022-09-12T10:23:23.676Z,19.80
2022-09-12T10:25:57.651Z,19.50
2022-09-12T10:28:36.235Z,19.60
2022-09-12T10:31:04.026Z,20.30
2022-09-12T10:33:43.808Z,20.40
2022-09-12T10:36:11.179Z,20.60
2022-09-12T10:38:38.059Z,20.80
2022-09-12T10:41:07.904Z,20.90
2022-09-12T10:43:36.285Z,21.10
2022-09-12T10:46:18.391Z,21.40
2022-09-12T10:48:49.931Z,21.50
2022-09-12T10:51:26.032Z,21.70
2022-09-12T10:53:56.508Z,21.80
2022-09-12T10:56:28.834Z,21.60
2022-09-12T10:59:07.909Z,21.50
2022-09-12T11:01:41.939Z,21.80
2022-09-12T11:04:44.278Z,21.90
2022-09-12T11:07:47.163Z,21.80
2022-09-12T11:10:42.539Z,21.60
2022-09-12T11:13:26.138Z,21.30
2022-09-12T11:16:09.450Z,20.60
2022-09-12T11:19:07.425Z,20.30
2022-09-12T11:22:01.805Z,19.90
2022-09-12T11:24:31.563Z,19.70
2022-09-12T11:27:01.136Z,19.60
2022-09-12T11:29:57.638Z,19.50
2022-09-12T11:33:05.691Z,19.60
2022-09-12T11:35:34.625Z,19.70
2022-09-12T11:38:10.237Z,19.60
2022-09-12T11:40:43.600Z,19.50
2022-09-12T11:43:36.907Z,19.60
2022-09-12T11:46:28.019Z,20.00
2022-09-12T11:49:19.566Z,20.30
2022-09-12T11:51:59.478Z,20.50
2022-09-12T11:54:53.680Z,20.50
2022-09-12T11:57:25.926Z,20.40
2022-09-12T12:00:14.887Z,20.60
2022-09-12T12:03:03.353Z,20.70
2022-09-12T12:05:44.172Z,20.60
2022-09-12T12:08:12.164Z,20.60
2022-09-12T12:10:41.015Z,20.60
2022-09-12T12:13:24.134Z,20.70
2022-09-12T12:16:16.171Z,20.70
2022-09-12T12:18:43.928Z,20.80
2022-09-12T12:21:28.104Z,20.70
2022-09-12T12:24:10.156Z,20.70
2022-09-12T12:26:42.758Z,20.70
2022-09-12T12:29:19.468Z,20.60
2022-09-12T12:32:04.241Z,20.50
2022-09-12T12:34:30.972Z,20.40
2022-09-12T12:37:00.715Z,20.40
2022-09-12T12:39:31.957Z,20.20
2022-09-12T12:42:00.124Z,20.10
2022-09-12T12:45:02.206Z,20.10
2022-09-12T12:47:34.040Z,20.20
2022-09-12T12:50:23.422Z,20.30
2022-09-12T12:52:51.801Z,20.40
2022-09-12T12:55:39.160Z,20.40
2022-09-12T12:58:08.289Z,20.50
2022-09-12T13:00:40.357Z,20.50
2022-09-12T13:03:07.080Z,20.40
2022-09-12T13:05:52.450Z,20.50
2022-09-12T13:08:19.167Z,20.40
2022-09-12T13:10:53.535Z,20.30
2022-09-12T13:13:38.900Z,20.30
2022-09-12T13:16:06.117Z,20.20
2022-09-12T13:18:48.953Z,20.40
2022-09-12T13:21:18.712Z,20.30
2022-09-12T13:24:02.046Z,20.50
2022-09-12T13:26:32.742Z,20.50
2022-09-12T13:29:21.514Z,20.40
2022-09-12T13:32:00.717Z,20.30
2022-09-12T13:34:34.038Z,20.20
2022-09-12T13:37:06.800Z,20.30
2022-09-12T13:39:59.053Z,20.30
2022-09-12T13:42:37.731Z,20.50
2022-09-12T13:45:07.366Z,20.40
2022-09-12T13:47:42.934Z,20.40
2022-09-12T13:50:16.648Z,20.50
2022-09-12T13:52:48.349Z,20.60
2022-09-12T13:55:31.405Z,20.50
2022-09-12T13:58:04.949Z,20.50
2022-09-12T14:00:34.925Z,20.40
2022-09-12T14:03:21.178Z,20.40
2022-09-12T14:05:57.043Z,20.50
2022-09-12T14:08:24.301Z,20.40
2022-09-12T14:10:51.549Z,20.30
2022-09-12T14:13:21.420Z,20.40
2022-09-12T14:15:50.751Z,20.20
2022-09-12T14:18:33.712Z,20.20
2022-09-12T14:21:28.405Z,20.30
2022-09-12T14:23:55.375Z,20.30
2022-09-12T14:26:23.552Z,20.40
2022-09-12T14:28:51.558Z,20.30
2022-09-12T14:31:29.316Z,20.30
2022-09-12T14:34:09.627Z,20.30
2022-09-12T14:36:39.960Z,20.30
2022-09-12T14:39:21.973Z,20.30
2022-09-12T14:41:49.972Z,20.30
2022-09-12T14:44:24.134Z,20.30
2022-09-12T14:46:52.112Z,20.30
2022-09-12T14:49:28.056Z,20.30
2022-09-12T14:51:57.940Z,20.20
2022-09-12T14:54:27.709Z,20.20
2022-09-12T14:56:57.906Z,20.20
2022-09-12T14:59:35.924Z,20.20
2022-09-12T15:02:26.453Z,20.10
2022-09-12T15:05:17.907Z,20.10
2022-09-12T15:07:53.934Z,20.10
2022-09-12T15:10:26.012Z,19.90
2022-09-12T15:13:14.038Z,19.90
2022-09-12T15:15:46.514Z,19.90
2022-09-12T15:18:14.804Z,19.90
2022-09-12T15:20:44.476Z,19.70
2022-09-12T15:23:40.782Z,19.60
2022-09-12T15:26:11.597Z,19.60
2022-09-12T15:28:38.431Z,19.50
2022-09-12T15:31:21.660Z,19.50
2022-09-12T15:33:48.576Z,19.50
2022-09-12T15:36:18.686Z,19.60
2022-09-12T15:38:46.065Z,19.60
2022-09-12T15:41:37.366Z,19.50
2022-09-12T15:44:05.151Z,19.50
2022-09-12T15:46:32.065Z,19.50
2022-09-12T15:48:58.876Z,19.40
2022-09-12T15:51:25.642Z,19.40
2022-09-12T15:53:52.746Z,19.40
2022-09-12T15:56:21.365Z,19.30
2022-09-12T15:58:58.645Z,19.30
2022-09-12T16:01:28.194Z,19.30
2022-09-12T16:03:55.429Z,19.30
2022-09-12T16:06:23.491Z,19.20
2022-09-12T16:08:50.470Z,19.20
2022-09-12T16:11:25.893Z,19.10
2022-09-12T16:13:53.942Z,19.10
2022-09-12T16:16:21.182Z,19.10
2022-09-12T16:18:48.454Z,19.00
2022-09-12T16:21:15.964Z,18.90
2022-09-12T16:23:44.100Z,18.90
2022-09-12T16:26:11.217Z,18.80
2022-09-12T16:28:38.029Z,18.80
2022-09-12T16:31:07.328Z,18.70
2022-09-12T16:33:34.556Z,18.70
2022-09-12T16:36:09.606Z,18.60
2022-09-12T16:38:46.853Z,18.60
2022-09-12T16:41:15.173Z,18.50
2022-09-12T16:43:42.972Z,18.40
2022-09-12T16:46:21.470Z,18.40
2022-09-12T16:48:52.395Z,18.30
2022-09-12T16:51:25.892Z,18.30
2022-09-12T16:53:54.045Z,18.20
2022-09-12T16:56:21.223Z,18.10
2022-09-12T16:58:48.357Z,18.10
2022-09-12T17:01:17.871Z,18.00
2022-09-12T17:03:45.038Z,18.00
2022-09-12T17:06:18.057Z,17.90
2022-09-12T17:08:48.003Z,17.80
2022-09-12T17:11:20.646Z,17.70
2022-09-12T17:14:04.456Z,17.70
2022-09-12T17:16:34.544Z,17.60
2022-09-12T17:19:01.441Z,17.50
2022-09-12T17:21:28.347Z,17.40
2022-09-12T17:23:55.373Z,17.30
2022-09-12T17:26:22.415Z,17.30
2022-09-12T17:28:49.619Z,17.20
2022-09-12T17:31:17.271Z,17.10
2022-09-12T17:33:44.191Z,17.00
2022-09-12T17:36:15.245Z,16.90
2022-09-12T17:38:43.818Z,16.90
2022-09-12T17:41:17.448Z,16.80
2022-09-12T17:43:50.835Z,16.70
2022-09-12T17:46:19.296Z,16.70
2022-09-12T17:48:51.577Z,16.60
2022-09-12T17:51:18.383Z,16.50
2022-09-12T17:53:45.259Z,16.50
2022-09-12T17:56:12.639Z,16.40
2022-09-12T17:58:39.906Z,16.30
2022-09-12T18:01:33.110Z,16.20
2022-09-12T18:04:01.068Z,16.10
2022-09-12T18:06:29.041Z,16.10
2022-09-12T18:08:55.912Z,16.00
2022-09-12T18:11:22.799Z,15.90
2022-09-12T18:13:50.617Z,15.90
2022-09-12T18:16:17.664Z,15.80
2022-09-12T18:18:44.478Z,15.80
2022-09-12T18:21:12.522Z,15.80
2022-09-12T18:23:39.529Z,15.70
2022-09-12T18:26:08.392Z,15.60
2022-09-12T18:28:37.966Z,15.60
2022-09-12T18:31:11.233Z,15.60
2022-09-12T18:33:38.081Z,15.60
2022-09-12T18:36:05.787Z,15.50
2022-09-12T18:38:32.669Z,15.50
2022-09-12T18:41:07.805Z,15.40
2022-09-12T18:43:34.953Z,15.40
2022-09-12T18:46:06.442Z,15.40
2022-09-12T18:48:34.250Z,15.30
2022-09-12T18:51:12.340Z,15.30
2022-09-12T18:53:39.381Z,15.30
2022-09-12T18:56:09.087Z,15.30
2022-09-12T18:58:37.736Z,15.30
2022-09-12T19:01:11.762Z,15.20
2022-09-12T19:03:38.784Z,15.20
2022-09-12T19:06:18.055Z,15.20
2022-09-12T19:08:45.360Z,15.20
2022-09-12T19:11:13.124Z,15.00
2022-09-12T19:13:42.148Z,15.00
2022-09-12T19:16:11.464Z,14.90
2022-09-12T19:18:39.765Z,14.90
2022-09-12T19:21:08.326Z,14.80
2022-09-12T19:23:35.854Z,14.70
2022-09-12T19:26:05.625Z,14.70
2022-09-12T19:28:32.843Z,14.70
2022-09-12T19:30:59.722Z,14.60
2022-09-12T19:33:26.555Z,14.60
2022-09-12T19:35:53.412Z,14.50
2022-09-12T19:38:20.176Z,14.50
2022-09-12T19:40:59.259Z,14.40
2022-09-12T19:43:26.427Z,14.30
2022-09-12T19:45:53.657Z,14.30
2022-09-12T19:48:21.238Z,14.30
2022-09-12T19:50:48.434Z,14.20
2022-09-12T19:53:15.987Z,14.20
2022-09-12T19:55:43.289Z,14.10
2022-09-12T19:58:10.583Z,14.10
2022-09-12T20:00:37.849Z,14.10
2022-09-12T20:03:05.514Z,14.00
2022-09-12T20:05:33.296Z,13.90
2022-09-12T20:08:00.967Z,13.90
2022-09-12T20:10:27.904Z,13.90
2022-09-12T20:12:54.800Z,13.90
2022-09-12T20:15:21.679Z,13.80
2022-09-12T20:17:52.551Z,13.80
2022-09-12T20:20:19.337Z,13.70
2022-09-12T20:22:50.782Z,13.80
2022-09-12T20:25:18.063Z,13.70
2022-09-12T20:27:44.779Z,13.70
2022-09-12T20:30:12.212Z,13.60
2022-09-12T20:32:38.989Z,13.60
2022-09-12T20:35:06.482Z,13.50
2022-09-12T20:37:33.219Z,13.50
2022-09-12T20:40:00.003Z,13.50
2022-09-12T20:42:26.778Z,13.40
2022-09-12T20:44:53.584Z,13.40
2022-09-12T20:47:20.316Z,13.40
2022-09-12T20:49:47.058Z,13.30
2022-09-12T20:52:13.803Z,13.30
2022-09-12T20:54:40.570Z,13.30
2022-09-12T20:57:07.406Z,13.30
2022-09-12T20:59:35.174Z,13.30
2022-09-12T21:02:01.980Z,13.30
2022-09-12T21:04:28.934Z,13.30
2022-09-12T21:06:55.742Z,13.20
2022-09-12T21:09:22.958Z,13.20
2022-09-12T21:11:50.332Z,13.20
2022-09-12T21:14:17.093Z,13.20
2022-09-12T21:16:43.826Z,13.10
2022-09-12T21:19:10.758Z,13.20
2022-09-12T21:21:37.494Z,13.10
2022-09-12T21:24:04.465Z,13.10
2022-09-12T21:26:31.503Z,13.00
2022-09-12T21:28:58.314Z,13.10
2022-09-12T21:31:25.537Z,13.10
2022-09-12T21:33:52.554Z,13.20
2022-09-12T21:36:19.372Z,13.10
2022-09-12T21:38:46.123Z,13.10
2022-09-12T21:41:17.004Z,13.10
2022-09-12T21:43:44.262Z,13.00
2022-09-12T21:46:12.039Z,13.00
2022-09-12T21:48:38.926Z,12.90
2022-09-12T21:51:06.506Z,13.00
2022-09-12T21:53:33.297Z,13.00
2022-09-12T21:56:04.828Z,13.00
2022-09-12T21:58:31.734Z,13.00
2022-09-12T22:01:00.277Z,12.90
2022-09-12T22:03:28.582Z,12.90
2022-09-12T22:06:03.819Z,12.80
2022-09-12T22:08:32.610Z,12.80
2022-09-12T22:11:02.034Z,12.80
2022-09-12T22:13:33.694Z,12.70
2022-09-12T22:16:03.190Z,12.60
2022-09-12T22:18:33.293Z,12.60
2022-09-12T22:21:05.605Z,12.60
2022-09-12T22:23:50.915Z,12.60
2022-09-12T22:26:19.112Z,12.50
2022-09-12T22:28:47.510Z,12.50
2022-09-12T22:31:15.267Z,12.50
2022-09-12T22:33:42.037Z,12.40
2022-09-12T22:36:10.015Z,12.40
2022-09-12T22:38:37.007Z,12.40
2022-09-12T22:41:05.262Z,12.40
2022-09-12T22:43:33.456Z,12.40
2022-09-12T22:46:00.429Z,12.40
2022-09-12T22:48:27.323Z,12.30
2022-09-12T22:50:54.231Z,12.30
2022-09-12T22:53:20.994Z,12.20
2022-09-12T22:55:47.888Z,12.20
2022-09-12T22:58:14.899Z,12.20
2022-09-12T23:00:48.079Z,12.10
2022-09-12T23:03:15.004Z,12.10
2022-09-12T23:05:41.803Z,12.10
2022-09-12T23:08:08.522Z,12.10
2022-09-12T23:10:36.259Z,12.20
2022-09-12T23:13:04.003Z,12.10
2022-09-12T23:15:31.442Z,12.00
2022-09-12T23:17:58.987Z,12.10
2022-09-12T23:20:25.891Z,12.00
2022-09-12T23:22:52.705Z,12.00
2022-09-12T23:25:21.643Z,12.00
2022-09-12T23:27:48.765Z,12.00
2022-09-12T23:30:21.491Z,12.00
2022-09-12T23:32:49.056Z,11.90
2022-09-12T23:35:19.393Z,11.90
2022-09-12T23:37:46.791Z,11.90
2022-09-12T23:40:13.765Z,11.80
2022-09-12T23:42:40.684Z,11.90
2022-09-12T23:45:08.265Z,12.00
2022-09-12T23:47:34.986Z,12.00
2022-09-12T23:50:01.951Z,12.10
2022-09-12T23:52:29.459Z,12.10
2022-09-12T23:54:56.227Z,12.10
2022-09-12T23:57:22.983Z,12.10
2022-09-12T23:59:49.710Z,12.00
